createdAt,value
2023-03-11T00:01:04.445Z,77.76
2023-03-11T00:03:08.271Z,77.41
2023-03-11T00:05:16.145Z,78.01
2023-03-11T00:07:19.354Z,77.87
2023-03-11T00:09:20.908Z,77.51
2023-03-11T00:11:23.070Z,77.85
2023-03-11T00:13:25.032Z,77.97
2023-03-11T00:15:27.829Z,77.82
2023-03-11T00:17:29.538Z,77.90
2023-03-11T00:19:31.599Z,77.11
2023-03-11T00:21:33.350Z,77.75
2023-03-11T00:23:36.743Z,77.82
2023-03-11T00:25:39.671Z,78.33
2023-03-11T00:27:41.395Z,77.67
2023-03-11T00:29:43.064Z,77.45
2023-03-11T00:31:45.313Z,77.28
2023-03-11T00:33:49.050Z,77.06
2023-03-11T00:35:51.413Z,77.11
2023-03-11T00:37:54.868Z,76.95
2023-03-11T00:39:58.050Z,76.98
2023-03-11T00:41:59.902Z,77.08
2023-03-11T00:44:01.659Z,76.79
2023-03-11T00:46:03.541Z,76.16
2023-03-11T00:48:06.397Z,76.55
2023-03-11T00:50:10.501Z,76.45
2023-03-11T00:52:12.091Z,76.28
2023-03-11T00:54:13.697Z,76.45
2023-03-11T00:56:17.325Z,76.58
2023-03-11T00:58:18.875Z,75.88
2023-03-11T01:00:22.339Z,76.28
2023-03-11T01:02:24.213Z,75.83
2023-03-11T01:04:26.093Z,76.21
2023-03-11T01:06:35.795Z,75.90
2023-03-11T01:08:42.701Z,76.24
2023-03-11T01:10:44.543Z,76.16
2023-03-11T01:12:48.151Z,76.21
2023-03-11T01:14:49.774Z,75.71
2023-03-11T01:16:51.527Z,76.17
2023-03-11T01:18:53.332Z,75.58
2023-03-11T01:20:55.038Z,75.34
2023-03-11T01:22:56.628Z,75.89
2023-03-11T01:24:58.296Z,75.89
2023-03-11T01:27:00.493Z,75.94
2023-03-11T01:29:03.581Z,75.64
2023-03-11T01:31:05.186Z,76.05
2023-03-11T01:33:08.624Z,76.06
2023-03-11T01:35:12.005Z,75.84
2023-03-11T01:37:13.875Z,76.22
2023-03-11T01:39:15.552Z,76.43
2023-03-11T01:41:17.273Z,75.93
2023-03-11T01:43:48.750Z,75.12
2023-03-11T01:46:17.656Z,75.43
2023-03-11T01:48:19.261Z,76.36
2023-03-11T01:50:21.216Z,75.86
2023-03-11T01:52:23.451Z,76.19
2023-03-11T01:54:28.641Z,76.61
2023-03-11T01:56:31.249Z,75.70
2023-03-11T01:58:38.173Z,76.09
2023-03-11T02:00:42.115Z,76.01
2023-03-11T02:02:51.346Z,75.72
2023-03-11T02:04:55.222Z,76.21
2023-03-11T02:06:57.415Z,75.89
2023-03-11T02:09:01.357Z,76.71
2023-03-11T02:11:06.249Z,75.98
2023-03-11T02:13:08.121Z,76.82
2023-03-11T02:15:11.256Z,76.53
2023-03-11T02:17:13.669Z,76.42
2023-03-11T02:19:25.097Z,76.39
2023-03-11T02:21:29.023Z,76.70
2023-03-11T02:23:39.590Z,76.39
2023-03-11T02:25:46.441Z,76.88
2023-03-11T02:27:53.517Z,76.80
2023-03-11T02:29:55.714Z,77.19
2023-03-11T02:31:59.497Z,77.01
2023-03-11T02:34:04.420Z,76.29
2023-03-11T02:36:07.071Z,77.08
2023-03-11T02:38:08.739Z,76.47
2023-03-11T02:40:36.814Z,76.43
2023-03-11T02:42:38.353Z,76.34
2023-03-11T02:44:44.712Z,76.72
2023-03-11T02:46:46.614Z,76.67
2023-03-11T02:48:49.156Z,76.43
2023-03-11T02:50:52.134Z,76.18
2023-03-11T02:52:54.081Z,76.13
2023-03-11T02:54:55.727Z,76.70
2023-03-11T02:56:57.486Z,76.93
2023-03-11T02:58:59.237Z,76.42
2023-03-11T03:01:02.667Z,76.62
2023-03-11T03:03:04.589Z,76.25
2023-03-11T03:05:07.682Z,77.11
2023-03-11T03:07:09.437Z,76.50
2023-03-11T03:09:11.089Z,76.80
2023-03-11T03:11:12.859Z,76.89
2023-03-11T03:13:14.959Z,76.26
2023-03-11T03:15:17.291Z,76.39
2023-03-11T03:17:20.295Z,76.00
2023-03-11T03:19:22.095Z,76.24
2023-03-11T03:21:23.994Z,76.21
2023-03-11T03:23:25.817Z,75.76
2023-03-11T03:25:27.485Z,75.71
2023-03-11T03:27:33.714Z,76.37
2023-03-11T03:29:35.469Z,75.65
2023-03-11T03:31:38.570Z,75.86
2023-03-11T03:33:41.658Z,75.77
2023-03-11T03:35:45.042Z,75.86
2023-03-11T03:37:49.893Z,75.38
2023-03-11T03:39:51.615Z,75.08
2023-03-11T03:41:53.257Z,74.65
2023-03-11T03:43:55.145Z,74.92
2023-03-11T03:45:57.588Z,74.58
2023-03-11T03:47:59.250Z,75.09
2023-03-11T03:50:02.598Z,74.61
2023-03-11T03:52:05.652Z,74.22
2023-03-11T03:54:07.365Z,74.91
2023-03-11T03:56:11.275Z,74.72
2023-03-11T03:58:13.099Z,74.30
2023-03-11T04:00:15.637Z,74.56
2023-03-11T04:02:17.323Z,74.74
2023-03-11T04:04:19.241Z,74.28
2023-03-11T04:06:23.849Z,74.97
2023-03-11T04:08:25.420Z,74.86
2023-03-11T04:10:27.136Z,74.45
2023-03-11T04:12:28.688Z,74.92
2023-03-11T04:14:30.518Z,74.74
2023-03-11T04:16:33.369Z,74.73
2023-03-11T04:18:35.111Z,74.56
2023-03-11T04:20:38.773Z,74.32
2023-03-11T04:22:41.780Z,74.41
2023-03-11T04:24:43.350Z,74.57
2023-03-11T04:26:45.262Z,74.38
2023-03-11T04:28:46.945Z,74.27
2023-03-11T04:30:48.814Z,74.11
2023-03-11T04:32:50.778Z,74.06
2023-03-11T04:34:52.375Z,74.47
2023-03-11T04:36:55.991Z,74.57
2023-03-11T04:38:59.108Z,74.47
2023-03-11T04:41:01.061Z,73.60
2023-03-11T04:43:02.600Z,74.04
2023-03-11T04:45:05.317Z,73.71
2023-03-11T04:47:07.262Z,73.59
2023-03-11T04:49:08.920Z,73.80
2023-03-11T04:51:10.620Z,73.12
2023-03-11T04:53:12.556Z,73.88
2023-03-11T04:55:16.896Z,73.77
2023-03-11T04:57:18.694Z,73.92
2023-03-11T04:59:20.374Z,73.72
2023-03-11T05:01:21.986Z,73.18
2023-03-11T05:03:23.915Z,73.69
2023-03-11T05:05:25.865Z,74.01
2023-03-11T05:07:27.722Z,73.50
2023-03-11T05:09:29.873Z,73.66
2023-03-11T05:11:33.156Z,73.73
2023-03-11T05:13:35.141Z,73.02
2023-03-11T05:15:36.769Z,72.51
2023-03-11T05:17:38.619Z,73.24
2023-03-11T05:19:40.584Z,73.29
2023-03-11T05:21:42.312Z,73.35
2023-03-11T05:23:43.945Z,73.55
2023-03-11T05:25:45.841Z,73.06
2023-03-11T05:27:49.330Z,73.04
2023-03-11T05:29:51.102Z,72.66
2023-03-11T05:31:53.007Z,72.49
2023-03-11T05:33:54.930Z,72.61
2023-03-11T05:36:03.446Z,73.48
2023-03-11T05:38:05.275Z,72.80
2023-03-11T05:40:09.793Z,72.82
2023-03-11T05:42:11.590Z,73.35
2023-03-11T05:44:14.610Z,73.02
2023-03-11T05:46:16.861Z,73.01
2023-03-11T05:48:18.656Z,72.68
2023-03-11T05:50:21.007Z,72.90
2023-03-11T05:52:22.604Z,72.96
2023-03-11T05:54:24.249Z,73.49
2023-03-11T05:56:26.213Z,72.83
2023-03-11T05:58:28.125Z,72.70
2023-03-11T06:00:31.170Z,72.54
2023-03-11T06:02:33.073Z,72.57
2023-03-11T06:04:34.846Z,72.59
2023-03-11T06:06:36.724Z,73.05
2023-03-11T06:08:39.320Z,72.78
2023-03-11T06:10:41.638Z,72.46
2023-03-11T06:12:43.477Z,72.12
2023-03-11T06:14:45.289Z,71.99
2023-03-11T06:16:48.449Z,72.69
2023-03-11T06:18:50.072Z,72.63
2023-03-11T06:20:51.795Z,72.20
2023-03-11T06:22:53.406Z,71.88
2023-03-11T06:24:55.045Z,71.54
2023-03-11T06:26:56.891Z,71.01
2023-03-11T06:28:58.526Z,71.39
2023-03-11T06:31:07.869Z,71.42
2023-03-11T06:33:11.103Z,70.27
2023-03-11T06:35:12.927Z,71.19
2023-03-11T06:37:14.555Z,70.62
2023-03-11T06:39:16.615Z,70.82
2023-03-11T06:41:18.259Z,69.73
2023-03-11T06:43:21.604Z,69.91
2023-03-11T06:45:23.444Z,69.83
2023-03-11T06:47:25.060Z,69.98
2023-03-11T06:49:28.145Z,68.96
2023-03-11T06:51:30.221Z,69.44
2023-03-11T06:53:32.502Z,70.11
2023-03-11T06:55:34.442Z,69.20
2023-03-11T06:57:36.000Z,68.46
2023-03-11T06:59:38.006Z,68.73
2023-03-11T07:01:39.608Z,67.66
2023-03-11T07:03:42.175Z,67.75
2023-03-11T07:05:45.759Z,67.60
2023-03-11T07:07:47.626Z,68.13
2023-03-11T07:09:49.179Z,67.84
2023-03-11T07:11:51.739Z,67.58
2023-03-11T07:13:54.285Z,67.23
2023-03-11T07:16:03.984Z,66.83
2023-03-11T07:18:05.949Z,66.69
2023-03-11T07:20:09.263Z,67.09
2023-03-11T07:22:12.492Z,65.70
2023-03-11T07:24:14.350Z,65.26
2023-03-11T07:26:16.599Z,66.68
2023-03-11T07:28:19.080Z,65.68
2023-03-11T07:30:20.955Z,64.93
2023-03-11T07:32:23.214Z,65.51
2023-03-11T07:34:25.128Z,63.99
2023-03-11T07:36:27.908Z,62.90
2023-03-11T07:38:30.842Z,63.76
2023-03-11T07:40:32.570Z,62.84
2023-03-11T07:42:34.187Z,63.47
2023-03-11T07:44:36.242Z,63.23
2023-03-11T07:46:37.914Z,63.31
2023-03-11T07:48:40.541Z,62.56
2023-03-11T07:50:42.093Z,64.36
2023-03-11T07:52:44.024Z,63.63
2023-03-11T07:54:47.321Z,63.59
2023-03-11T07:56:48.957Z,63.10
2023-03-11T07:58:51.531Z,63.17
2023-03-11T08:00:54.364Z,62.34
2023-03-11T08:02:56.542Z,62.32
2023-03-11T08:04:58.382Z,62.99
2023-03-11T08:07:00.013Z,63.61
2023-03-11T08:09:04.509Z,61.56
2023-03-11T08:11:07.687Z,62.96
2023-03-11T08:13:09.402Z,62.18
2023-03-11T08:15:11.552Z,62.74
2023-03-11T08:17:13.283Z,61.45
2023-03-11T08:19:14.833Z,60.79
2023-03-11T08:21:19.402Z,61.97
2023-03-11T08:23:21.026Z,60.35
2023-03-11T08:25:22.669Z,59.89
2023-03-11T08:27:27.892Z,60.30
2023-03-11T08:29:29.436Z,58.01
2023-03-11T08:31:33.363Z,58.11
2023-03-11T08:33:34.985Z,58.89
2023-03-11T08:35:37.140Z,58.93
2023-03-11T08:37:39.357Z,59.17
2023-03-11T08:39:41.255Z,59.78
2023-03-11T08:41:42.923Z,59.15
2023-03-11T08:43:45.959Z,60.38
2023-03-11T08:45:47.648Z,60.10
2023-03-11T08:47:49.899Z,59.86
2023-03-11T08:49:51.461Z,60.87
2023-03-11T08:51:53.139Z,59.89
2023-03-11T08:53:55.018Z,60.59
2023-03-11T08:55:56.690Z,57.77
2023-03-11T08:57:58.300Z,57.98
2023-03-11T09:00:01.303Z,60.16
2023-03-11T09:02:03.514Z,59.05
2023-03-11T09:04:05.721Z,59.35
2023-03-11T09:06:10.660Z,58.04
2023-03-11T09:08:12.549Z,58.61
2023-03-11T09:10:17.615Z,60.07
2023-03-11T09:12:19.229Z,59.83
2023-03-11T09:14:20.984Z,60.11
2023-03-11T09:16:25.204Z,58.65
2023-03-11T09:18:27.050Z,58.20
2023-03-11T09:20:28.652Z,59.03
2023-03-11T09:22:30.661Z,59.23
2023-03-11T09:24:33.805Z,59.12
2023-03-11T09:26:35.502Z,58.70
2023-03-11T09:28:37.560Z,58.75
2023-03-11T09:30:39.382Z,57.60
2023-03-11T09:32:42.593Z,56.58
2023-03-11T09:34:44.265Z,57.02
2023-03-11T09:36:46.272Z,57.57
2023-03-11T09:38:48.725Z,57.12
2023-03-11T09:40:59.861Z,57.65
2023-03-11T09:43:10.841Z,58.30
2023-03-11T09:45:17.410Z,57.84
2023-03-11T09:47:31.608Z,58.17
2023-03-11T09:49:45.955Z,58.32
2023-03-11T09:51:56.551Z,58.34
2023-03-11T09:54:04.474Z,58.57
2023-03-11T09:56:08.044Z,57.79
2023-03-11T09:58:14.606Z,58.29
2023-03-11T10:00:20.874Z,58.09
2023-03-11T10:02:25.295Z,57.79
2023-03-11T10:04:32.143Z,58.00
2023-03-11T10:06:36.296Z,58.95
2023-03-11T10:08:43.469Z,59.73
2023-03-11T10:10:56.975Z,60.11
2023-03-11T10:13:08.713Z,58.64
2023-03-11T10:15:20.081Z,58.18
2023-03-11T10:17:43.259Z,58.52
2023-03-11T10:19:55.089Z,58.82
2023-03-11T10:22:05.805Z,59.55
2023-03-11T10:24:19.927Z,59.33
2023-03-11T10:26:28.329Z,58.60
2023-03-11T10:28:35.805Z,59.48
2023-03-11T10:30:43.407Z,57.97
2023-03-11T10:32:49.568Z,56.89
2023-03-11T10:34:57.142Z,56.11
2023-03-11T10:37:04.696Z,56.68
2023-03-11T10:39:06.924Z,55.71
2023-03-11T10:41:19.465Z,54.64
2023-03-11T10:43:27.807Z,56.94
2023-03-11T10:45:36.950Z,55.20
2023-03-11T10:47:38.903Z,56.07
2023-03-11T10:49:40.535Z,56.00
2023-03-11T10:51:46.637Z,55.22
2023-03-11T10:53:52.074Z,53.76
2023-03-11T10:55:57.194Z,56.16
2023-03-11T10:58:07.192Z,55.80
2023-03-11T11:00:11.497Z,54.53
2023-03-11T11:02:23.894Z,54.97
2023-03-11T11:04:33.508Z,55.88
2023-03-11T11:06:36.738Z,55.05
2023-03-11T11:08:38.522Z,54.53
2023-03-11T11:10:50.520Z,56.25
2023-03-11T11:12:55.017Z,55.20
2023-03-11T11:14:57.386Z,55.46
2023-03-11T11:16:59.187Z,54.89
2023-03-11T11:19:05.005Z,54.25
2023-03-11T11:21:08.852Z,54.23
2023-03-11T11:23:26.451Z,52.80
2023-03-11T11:25:32.297Z,53.47
2023-03-11T11:27:36.509Z,52.68
2023-03-11T11:29:38.880Z,53.50
2023-03-11T11:31:42.192Z,54.07
2023-03-11T11:33:50.900Z,53.66
2023-03-11T11:35:55.312Z,53.64
2023-03-11T11:38:02.684Z,53.57
2023-03-11T11:40:07.373Z,53.85
2023-03-11T11:42:13.578Z,54.48
2023-03-11T11:44:21.697Z,55.16
2023-03-11T11:46:28.404Z,53.71
2023-03-11T11:48:36.218Z,53.76
2023-03-11T11:50:43.711Z,54.62
2023-03-11T11:52:51.924Z,54.66
2023-03-11T11:54:59.076Z,54.64
2023-03-11T11:57:05.248Z,54.19
2023-03-11T11:59:15.117Z,55.73
2023-03-11T12:01:22.592Z,55.28
2023-03-11T12:03:49.651Z,55.26
2023-03-11T12:05:58.272Z,55.77
2023-03-11T12:08:13.907Z,55.75
2023-03-11T12:10:24.008Z,54.75
2023-03-11T12:12:33.035Z,53.89
2023-03-11T12:14:41.859Z,52.38
2023-03-11T12:16:55.046Z,51.71
2023-03-11T12:19:03.700Z,52.13
2023-03-11T12:21:18.138Z,51.58
2023-03-11T12:23:24.803Z,51.80
2023-03-11T12:25:39.919Z,53.56
2023-03-11T12:27:47.369Z,52.56
2023-03-11T12:29:54.844Z,51.61
2023-03-11T12:32:01.680Z,49.52
2023-03-11T12:34:06.805Z,50.78
2023-03-11T12:36:23.068Z,50.97
2023-03-11T12:38:30.497Z,50.69
2023-03-11T12:41:01.120Z,50.60
2023-03-11T12:43:03.067Z,49.55
2023-03-11T12:45:47.856Z,50.14
2023-03-11T12:48:20.423Z,49.89
2023-03-11T12:50:41.923Z,51.28
2023-03-11T12:52:54.340Z,49.48
2023-03-11T12:55:29.091Z,50.87
2023-03-11T12:57:37.235Z,49.61
2023-03-11T13:00:13.522Z,50.89
2023-03-11T13:02:30.202Z,49.10
2023-03-11T13:04:43.147Z,49.21
2023-03-11T13:07:07.430Z,48.68
2023-03-11T13:09:14.676Z,48.83
2023-03-11T13:11:43.333Z,49.30
2023-03-11T13:13:45.870Z,47.88
2023-03-11T13:15:47.873Z,46.81
2023-03-11T13:17:58.288Z,48.57
2023-03-11T13:20:00.059Z,45.90
2023-03-11T13:22:04.453Z,46.31
2023-03-11T13:24:54.335Z,46.08
2023-03-11T13:27:07.859Z,45.44
2023-03-11T13:29:38.120Z,44.92
2023-03-11T13:31:55.248Z,44.82
2023-03-11T13:34:02.670Z,44.39
2023-03-11T13:36:14.986Z,44.90
2023-03-11T13:38:39.011Z,44.96
2023-03-11T13:40:46.569Z,43.75
2023-03-11T13:42:50.968Z,44.01
2023-03-11T13:44:53.308Z,45.14
2023-03-11T13:47:00.657Z,45.33
2023-03-11T13:49:06.821Z,44.84
2023-03-11T13:51:16.330Z,46.05
2023-03-11T13:53:24.519Z,42.75
2023-03-11T13:55:32.416Z,43.27
2023-03-11T13:57:35.497Z,44.73
2023-03-11T13:59:37.180Z,45.44
2023-03-11T14:01:39.615Z,44.48
2023-03-11T14:03:44.990Z,45.04
2023-03-11T14:05:48.509Z,43.70
2023-03-11T14:07:50.573Z,44.59
2023-03-11T14:10:21.093Z,46.15
2023-03-11T14:12:22.911Z,44.48
2023-03-11T14:14:46.906Z,45.83
2023-03-11T14:16:49.100Z,43.19
2023-03-11T14:19:02.513Z,42.99
2023-03-11T14:21:06.583Z,40.73
2023-03-11T14:23:19.182Z,42.44
2023-03-11T14:25:25.316Z,41.09
2023-03-11T14:27:27.088Z,41.25
2023-03-11T14:29:33.246Z,41.65
2023-03-11T14:31:36.908Z,40.84
2023-03-11T14:33:38.551Z,40.61
2023-03-11T14:36:01.703Z,42.20
2023-03-11T14:38:20.184Z,41.12
2023-03-11T14:40:29.531Z,43.00
2023-03-11T14:42:34.678Z,42.62
2023-03-11T14:44:40.727Z,43.30
2023-03-11T14:46:45.286Z,42.94
2023-03-11T14:48:47.001Z,42.10
2023-03-11T14:50:49.906Z,42.18
2023-03-11T14:52:55.700Z,42.25
2023-03-11T14:54:57.894Z,42.56
2023-03-11T14:57:06.971Z,40.35
2023-03-11T14:59:15.104Z,42.51
2023-03-11T15:01:21.278Z,42.23
2023-03-11T15:03:26.361Z,42.23
2023-03-11T15:05:37.520Z,42.48
2023-03-11T15:07:39.626Z,40.67
2023-03-11T15:09:42.201Z,41.38
2023-03-11T15:11:45.492Z,40.95
2023-03-11T15:13:48.892Z,40.61
2023-03-11T15:15:56.345Z,41.29
2023-03-11T15:18:00.150Z,40.81
2023-03-11T15:20:02.034Z,40.48
2023-03-11T15:22:21.443Z,40.40
2023-03-11T15:24:27.710Z,40.98
2023-03-11T15:26:32.676Z,41.98
2023-03-11T15:28:37.224Z,41.47
2023-03-11T15:30:41.302Z,42.94
2023-03-11T15:32:44.257Z,43.83
2023-03-11T15:34:45.882Z,43.61
2023-03-11T15:36:57.339Z,44.44
2023-03-11T15:39:14.584Z,45.14
2023-03-11T15:41:16.247Z,44.70
2023-03-11T15:43:22.994Z,45.38
2023-03-11T15:45:24.813Z,45.33
2023-03-11T15:47:28.024Z,45.38
2023-03-11T15:49:30.086Z,45.26
2023-03-11T15:51:31.801Z,45.08
2023-03-11T15:53:33.894Z,44.44
2023-03-11T15:55:37.016Z,45.54
2023-03-11T15:57:40.328Z,44.66
2023-03-11T15:59:41.953Z,45.58
2023-03-11T16:01:43.936Z,44.78
2023-03-11T16:03:47.055Z,45.47
2023-03-11T16:05:48.835Z,45.41
2023-03-11T16:07:51.189Z,45.63
2023-03-11T16:09:52.865Z,45.95
2023-03-11T16:11:54.871Z,46.17
2023-03-11T16:13:56.566Z,46.33
2023-03-11T16:15:58.517Z,46.22
2023-03-11T16:18:02.143Z,46.45
2023-03-11T16:20:06.393Z,46.40
2023-03-11T16:22:16.148Z,47.88
2023-03-11T16:24:22.664Z,47.18
2023-03-11T16:26:24.356Z,47.25
2023-03-11T16:28:26.444Z,47.30
2023-03-11T16:30:30.664Z,47.69
2023-03-11T16:32:32.324Z,47.80
2023-03-11T16:34:34.037Z,47.58
2023-03-11T16:36:37.043Z,47.53
2023-03-11T16:38:45.128Z,48.01
2023-03-11T16:40:56.054Z,47.98
2023-03-11T16:43:00.938Z,47.87
2023-03-11T16:45:04.101Z,47.90
2023-03-11T16:47:06.512Z,47.61
2023-03-11T16:49:08.150Z,48.18
2023-03-11T16:51:10.661Z,48.69
2023-03-11T16:53:14.192Z,48.31
2023-03-11T16:55:15.966Z,48.31
2023-03-11T16:57:18.060Z,48.88
2023-03-11T16:59:19.675Z,48.85
2023-03-11T17:01:21.857Z,48.71
2023-03-11T17:03:24.824Z,48.58
2023-03-11T17:05:26.665Z,48.26
2023-03-11T17:07:28.510Z,48.98
2023-03-11T17:09:31.711Z,48.93
2023-03-11T17:11:33.265Z,48.22
2023-03-11T17:13:35.417Z,49.18
2023-03-11T17:15:37.992Z,49.21
2023-03-11T17:17:39.539Z,49.40
2023-03-11T17:19:41.217Z,49.84
2023-03-11T17:21:42.944Z,49.43
2023-03-11T17:23:45.058Z,50.29
2023-03-11T17:25:48.560Z,49.92
2023-03-11T17:27:50.772Z,50.09
2023-03-11T17:29:54.968Z,50.96
2023-03-11T17:31:58.390Z,50.49
2023-03-11T17:34:00.214Z,50.73
2023-03-11T17:36:02.339Z,50.39
2023-03-11T17:38:04.454Z,51.46
2023-03-11T17:40:07.279Z,50.94
2023-03-11T17:42:10.491Z,52.17
2023-03-11T17:44:12.179Z,52.71
2023-03-11T17:46:15.486Z,55.97
2023-03-11T17:48:17.238Z,56.99
2023-03-11T17:50:18.972Z,57.74
2023-03-11T17:52:20.563Z,58.33
2023-03-11T17:54:22.530Z,58.92
2023-03-11T17:56:24.328Z,59.47
2023-03-11T17:58:27.503Z,60.51
2023-03-11T18:00:29.148Z,61.08
2023-03-11T18:02:30.959Z,61.05
2023-03-11T18:04:32.607Z,61.57
2023-03-11T18:06:34.692Z,62.19
2023-03-11T18:08:37.089Z,61.66
2023-03-11T18:10:38.717Z,62.04
2023-03-11T18:12:44.405Z,62.23
2023-03-11T18:14:47.804Z,62.90
2023-03-11T18:16:49.450Z,63.04
2023-03-11T18:18:51.890Z,62.79
2023-03-11T18:20:53.749Z,62.95
2023-03-11T18:22:55.421Z,63.62
2023-03-11T18:24:57.051Z,63.32
2023-03-11T18:26:58.600Z,63.78
2023-03-11T18:29:00.868Z,64.20
2023-03-11T18:31:07.736Z,63.65
2023-03-11T18:33:09.403Z,63.57
2023-03-11T18:35:11.330Z,64.09
2023-03-11T18:37:13.139Z,64.95
2023-03-11T18:39:15.187Z,64.62
2023-03-11T18:41:17.014Z,64.91
2023-03-11T18:43:18.841Z,65.04
2023-03-11T18:45:20.937Z,65.69
2023-03-11T18:47:24.234Z,64.86
2023-03-11T18:49:25.904Z,65.16
2023-03-11T18:51:29.580Z,65.44
2023-03-11T18:53:31.537Z,65.77
2023-03-11T18:55:34.959Z,65.62
2023-03-11T18:57:36.707Z,66.02
2023-03-11T18:59:38.592Z,66.05
2023-03-11T19:01:40.272Z,65.71
2023-03-11T19:03:45.126Z,66.57
2023-03-11T19:05:48.088Z,66.75
2023-03-11T19:07:51.447Z,66.30
2023-03-11T19:09:53.349Z,66.68
2023-03-11T19:11:55.222Z,66.94
2023-03-11T19:13:57.060Z,67.81
2023-03-11T19:16:00.112Z,67.38
2023-03-11T19:18:06.914Z,67.46
2023-03-11T19:20:12.313Z,67.29
2023-03-11T19:22:14.146Z,68.28
2023-03-11T19:24:15.830Z,68.43
2023-03-11T19:26:17.503Z,68.03
2023-03-11T19:28:20.106Z,67.78
2023-03-11T19:30:21.752Z,68.86
2023-03-11T19:32:23.768Z,68.33
2023-03-11T19:34:25.802Z,69.13
2023-03-11T19:36:28.965Z,69.03
2023-03-11T19:38:30.826Z,69.50
2023-03-11T19:40:32.772Z,69.61
2023-03-11T19:42:34.541Z,70.07
2023-03-11T19:44:36.701Z,69.92
2023-03-11T19:46:38.367Z,69.25
2023-03-11T19:48:40.548Z,70.34
2023-03-11T19:50:42.069Z,69.68
2023-03-11T19:52:45.467Z,70.06
2023-03-11T19:54:47.105Z,70.07
2023-03-11T19:56:49.160Z,69.77
2023-03-11T19:58:50.964Z,69.66
2023-03-11T20:00:52.871Z,70.63
2023-03-11T20:02:55.387Z,70.53
2023-03-11T20:04:57.198Z,70.74
2023-03-11T20:06:59.111Z,70.23
2023-03-11T20:09:02.539Z,70.36
2023-03-11T20:11:05.427Z,70.45
2023-03-11T20:13:07.323Z,70.62
2023-03-11T20:15:10.382Z,70.79
2023-03-11T20:17:12.541Z,70.83
2023-03-11T20:19:14.254Z,70.99
2023-03-11T20:21:15.952Z,70.71
2023-03-11T20:23:17.996Z,70.50
2023-03-11T20:25:21.885Z,70.62
2023-03-11T20:27:23.600Z,70.29
2023-03-11T20:29:25.408Z,70.06
2023-03-11T20:31:28.208Z,70.71
2023-03-11T20:33:29.898Z,70.68
2023-03-11T20:35:31.561Z,70.32
2023-03-11T20:37:33.484Z,71.08
2023-03-11T20:39:35.290Z,70.76
2023-03-11T20:41:40.067Z,70.94
2023-03-11T20:43:41.895Z,70.75
2023-03-11T20:45:43.499Z,70.21
2023-03-11T20:47:46.557Z,70.78
2023-03-11T20:49:48.433Z,71.10
2023-03-11T20:51:50.198Z,71.62
2023-03-11T20:53:52.308Z,71.76
2023-03-11T20:55:54.031Z,71.93
2023-03-11T20:57:57.047Z,72.20
2023-03-11T20:59:58.668Z,72.03
2023-03-11T21:02:00.598Z,72.60
2023-03-11T21:04:03.609Z,73.46
2023-03-11T21:06:12.183Z,74.03
2023-03-11T21:08:13.778Z,73.39
2023-03-11T21:10:15.696Z,73.40
2023-03-11T21:12:17.738Z,73.82
2023-03-11T21:14:20.920Z,73.87
2023-03-11T21:16:23.556Z,73.95
2023-03-11T21:18:25.940Z,73.82
2023-03-11T21:20:27.904Z,74.16
2023-03-11T21:22:31.675Z,73.51
2023-03-11T21:24:33.404Z,73.59
2023-03-11T21:26:35.691Z,73.72
2023-03-11T21:28:38.399Z,73.93
2023-03-11T21:30:41.469Z,74.25
2023-03-11T21:32:43.490Z,73.86
2023-03-11T21:34:45.255Z,74.26
2023-03-11T21:36:47.089Z,74.44
2023-03-11T21:38:49.592Z,74.08
2023-03-11T21:40:53.574Z,73.95
2023-03-11T21:42:55.763Z,73.98
2023-03-11T21:44:57.728Z,73.64
2023-03-11T21:47:00.945Z,74.48
2023-03-11T21:49:02.966Z,73.69
2023-03-11T21:51:05.366Z,74.42
2023-03-11T21:53:07.791Z,74.03
2023-03-11T21:55:09.665Z,73.82
2023-03-11T21:57:11.283Z,73.45
2023-03-11T21:59:13.141Z,73.20
2023-03-11T22:01:15.470Z,73.48
2023-03-11T22:03:19.861Z,73.12
2023-03-11T22:05:21.506Z,73.66
2023-03-11T22:07:23.657Z,73.99
2023-03-11T22:09:25.590Z,73.37
2023-03-11T22:11:27.956Z,73.71
2023-03-11T22:13:29.482Z,73.74
2023-03-11T22:15:31.212Z,73.46
2023-03-11T22:17:33.195Z,73.41
2023-03-11T22:19:36.558Z,74.04
2023-03-11T22:21:38.450Z,73.63
2023-03-11T22:23:39.995Z,73.90
2023-03-11T22:25:41.632Z,73.28
2023-03-11T22:27:43.198Z,73.78
2023-03-11T22:29:45.019Z,73.61
2023-03-11T22:31:46.991Z,73.41
2023-03-11T22:33:48.670Z,73.76
2023-03-11T22:35:54.724Z,72.56
2023-03-11T22:37:57.166Z,73.25
2023-03-11T22:39:58.813Z,73.14
2023-03-11T22:42:00.664Z,72.74
2023-03-11T22:44:02.545Z,73.44
2023-03-11T22:46:05.517Z,73.31
2023-03-11T22:48:07.749Z,73.11
2023-03-11T22:50:10.525Z,72.88
2023-03-11T22:52:13.559Z,73.02
2023-03-11T22:54:15.158Z,72.53
2023-03-11T22:56:18.394Z,72.66
2023-03-11T22:58:20.426Z,72.58
2023-03-11T23:00:24.439Z,72.79
2023-03-11T23:02:26.300Z,72.68
2023-03-11T23:04:28.537Z,71.86
2023-03-11T23:06:30.453Z,71.58
2023-03-11T23:08:34.471Z,71.52
2023-03-11T23:10:36.512Z,70.96
2023-03-11T23:12:38.626Z,71.15
2023-03-11T23:14:45.025Z,70.32
2023-03-11T23:16:47.204Z,70.36
2023-03-11T23:18:51.475Z,70.59
2023-03-11T23:20:53.128Z,69.59
2023-03-11T23:22:54.778Z,69.15
2023-03-11T23:25:01.355Z,69.05
2023-03-11T23:27:04.170Z,67.12
2023-03-11T23:29:05.966Z,66.16
2023-03-11T23:31:08.133Z,65.50
2023-03-11T23:33:09.736Z,65.16
2023-03-11T23:35:12.461Z,63.90
2023-03-11T23:37:14.009Z,64.05
2023-03-11T23:39:15.563Z,63.14
2023-03-11T23:41:20.823Z,63.43
2023-03-11T23:43:22.696Z,62.02
2023-03-11T23:45:24.256Z,61.18
2023-03-11T23:47:26.152Z,60.66
2023-03-11T23:49:27.953Z,60.18
2023-03-11T23:51:30.087Z,59.86
2023-03-11T23:53:32.854Z,59.99
2023-03-11T23:55:37.612Z,60.31
2023-03-11T23:57:40.922Z,58.96
2023-03-11T23:59:42.532Z,58.40
